sensor_id;sensor_type;location;lat;lon;timestamp;pressure;altitude;pressure_sealevel;temperature;humidity
69855;BME280;57146;48.140;16.304;2023-04-29T00:01:10;99094.88;;;11.98;94.39
69855;BME280;57146;48.140;16.304;2023-04-29T00:03:37;99100.31;;;12.02;94.05
69855;BME280;57146;48.140;16.304;2023-04-29T00:06:04;99102.31;;;12.05;93.78
69855;BME280;57146;48.140;16.304;2023-04-29T00:08:32;99100.44;;;12.05;93.60
69855;BME280;57146;48.140;16.304;2023-04-29T00:11:00;99099.38;;;12.06;93.25
69855;BME280;57146;48.140;16.304;2023-04-29T00:13:27;99100.94;;;12.07;93.66
69855;BME280;57146;48.140;16.304;2023-04-29T00:15:54;99104.19;;;12.04;93.88
69855;BME280;57146;48.140;16.304;2023-04-29T00:18:21;99097.38;;;12.03;93.82
69855;BME280;57146;48.140;16.304;2023-04-29T00:20:48;99097.38;;;12.03;94.13
69855;BME280;57146;48.140;16.304;2023-04-29T00:23:15;99100.44;;;12.05;93.90
69855;BME280;57146;48.140;16.304;2023-04-29T00:25:42;99089.75;;;12.02;93.75
69855;BME280;57146;48.140;16.304;2023-04-29T00:28:09;99082.78;;;11.97;94.38
69855;BME280;57146;48.140;16.304;2023-04-29T00:30:35;99089.59;;;11.98;94.93
69855;BME280;57146;48.140;16.304;2023-04-29T00:33:02;99081.38;;;12.00;94.25
69855;BME280;57146;48.140;16.304;2023-04-29T00:35:34;99081.25;;;11.96;94.76
69855;BME280;57146;48.140;16.304;2023-04-29T00:38:01;99081.38;;;12.00;94.65
69855;BME280;57146;48.140;16.304;2023-04-29T00:40:28;99079.38;;;11.96;94.83
69855;BME280;57146;48.140;16.304;2023-04-29T00:42:55;99087.91;;;11.93;95.48
69855;BME280;57146;48.140;16.304;2023-04-29T00:45:22;99087.72;;;11.98;95.68
69855;BME280;57146;48.140;16.304;2023-04-29T00:47:49;99087.72;;;11.98;94.84
69855;BME280;57146;48.140;16.304;2023-04-29T00:50:17;99086.19;;;11.97;94.83
69855;BME280;57146;48.140;16.304;2023-04-29T00:52:44;99093.81;;;11.99;95.31
69855;BME280;57146;48.140;16.304;2023-04-29T00:55:12;99079.22;;;11.93;94.98
69855;BME280;57146;48.140;16.304;2023-04-29T00:57:38;99089.63;;;11.89;95.47
69855;BME280;57146;48.140;16.304;2023-04-29T01:00:06;99085.44;;;11.88;96.38
69855;BME280;57146;48.140;16.304;2023-04-29T01:02:33;99086.84;;;11.86;96.15
69855;BME280;57146;48.140;16.304;2023-04-29T01:05:00;99080.28;;;11.83;95.49
69855;BME280;57146;48.140;16.304;2023-04-29T01:07:29;99075.97;;;11.79;95.73
69855;BME280;57146;48.140;16.304;2023-04-29T01:10:05;99081.69;;;11.81;96.04
69855;BME280;57146;48.140;16.304;2023-04-29T01:15:03;99077.66;;;11.74;95.71
69855;BME280;57146;48.140;16.304;2023-04-29T01:17:43;99074.88;;;11.71;95.81
69855;BME280;57146;48.140;16.304;2023-04-29T01:20:14;99075.66;;;11.71;95.80
69855;BME280;57146;48.140;16.304;2023-04-29T01:22:42;99080.31;;;11.74;95.71
69855;BME280;57146;48.140;16.304;2023-04-29T01:25:10;99085.56;;;11.74;95.54
69855;BME280;57146;48.140;16.304;2023-04-29T01:31:12;99084.94;;;11.69;96.00
69855;BME280;57146;48.140;16.304;2023-04-29T01:39:19;99079.69;;;11.60;96.74
69855;BME280;57146;48.140;16.304;2023-04-29T01:42:06;99069.44;;;11.59;97.00
69855;BME280;57146;48.140;16.304;2023-04-29T01:44:37;99075.03;;;11.57;96.69
69855;BME280;57146;48.140;16.304;2023-04-29T01:47:05;99073.78;;;11.55;96.65
69855;BME280;57146;48.140;16.304;2023-04-29T01:49:39;99070.84;;;11.56;96.55
69855;BME280;57146;48.140;16.304;2023-04-29T01:52:06;99074.25;;;11.57;96.45
69855;BME280;57146;48.140;16.304;2023-04-29T01:54:35;99073.00;;;11.54;96.65
69855;BME280;57146;48.140;16.304;2023-04-29T01:57:02;99073.00;;;11.54;97.16
69855;BME280;57146;48.140;16.304;2023-04-29T01:59:38;99073.78;;;11.55;97.10
69855;BME280;57146;48.140;16.304;2023-04-29T02:02:15;99072.53;;;11.52;96.88
69855;BME280;57146;48.140;16.304;2023-04-29T02:04:51;99077.81;;;11.52;96.71
69855;BME280;57146;48.140;16.304;2023-04-29T02:07:18;99072.38;;;11.48;97.22
69855;BME280;57146;48.140;16.304;2023-04-29T02:09:46;99070.84;;;11.47;97.48
69855;BME280;57146;48.140;16.304;2023-04-29T02:12:13;99073.47;;;11.47;97.71
69855;BME280;57146;48.140;16.304;2023-04-29T02:14:40;99071.47;;;11.53;97.86
69855;BME280;57146;48.140;16.304;2023-04-29T02:17:07;99076.41;;;11.55;97.48
69855;BME280;57146;48.140;16.304;2023-04-29T02:19:35;99072.69;;;11.56;97.75
69855;BME280;57146;48.140;16.304;2023-04-29T02:22:02;99074.56;;;11.55;97.83
69855;BME280;57146;48.140;16.304;2023-04-29T02:24:29;99075.03;;;11.57;97.71
69855;BME280;57146;48.140;16.304;2023-04-29T02:26:56;99074.41;;;11.60;97.32
69855;BME280;57146;48.140;16.304;2023-04-29T02:29:23;99075.81;;;11.58;97.30
69855;BME280;57146;48.140;16.304;2023-04-29T02:31:51;99077.66;;;11.57;97.34
69855;BME280;57146;48.140;16.304;2023-04-29T02:34:17;99077.97;;;11.56;98.14
69855;BME280;57146;48.140;16.304;2023-04-29T02:36:44;99071.91;;;11.55;98.01
69855;BME280;57146;48.140;16.304;2023-04-29T02:39:11;99077.66;;;11.57;98.15
69855;BME280;57146;48.140;16.304;2023-04-29T02:41:38;99075.47;;;11.59;97.59
69855;BME280;57146;48.140;16.304;2023-04-29T02:44:05;99079.22;;;11.58;97.83
69855;BME280;57146;48.140;16.304;2023-04-29T02:46:32;99078.13;;;11.59;98.25
69855;BME280;57146;48.140;16.304;2023-04-29T02:48:59;99077.34;;;11.59;98.18
69855;BME280;57146;48.140;16.304;2023-04-29T02:51:27;99074.41;;;11.60;97.70
69855;BME280;57146;48.140;16.304;2023-04-29T02:53:54;99073.00;;;11.63;97.82
69855;BME280;57146;48.140;16.304;2023-04-29T02:56:20;99077.97;;;11.64;97.85
69855;BME280;57146;48.140;16.304;2023-04-29T02:58:47;99069.16;;;11.60;98.04
69855;BME280;57146;48.140;16.304;2023-04-29T03:01:14;99064.94;;;11.59;98.10
69855;BME280;57146;48.140;16.304;2023-04-29T03:03:41;99066.03;;;11.58;98.21
69855;BME280;57146;48.140;16.304;2023-04-29T03:06:09;99065.59;;;11.56;98.36
69855;BME280;57146;48.140;16.304;2023-04-29T03:08:36;99065.88;;;11.55;98.81
69855;BME280;57146;48.140;16.304;2023-04-29T03:11:02;99062.78;;;11.53;99.24
69855;BME280;57146;48.140;16.304;2023-04-29T03:13:29;99063.84;;;11.51;99.36
69855;BME280;57146;48.140;16.304;2023-04-29T03:15:56;99059.84;;;11.54;99.19
69855;BME280;57146;48.140;16.304;2023-04-29T03:18:23;99068.22;;;11.56;99.01
69855;BME280;57146;48.140;16.304;2023-04-29T03:20:50;99066.34;;;11.57;98.64
69855;BME280;57146;48.140;16.304;2023-04-29T03:23:17;99069.28;;;11.55;99.16
69855;BME280;57146;48.140;16.304;2023-04-29T03:25:44;99064.94;;;11.59;98.95
69855;BME280;57146;48.140;16.304;2023-04-29T03:28:11;99071.91;;;11.55;99.12
69855;BME280;57146;48.140;16.304;2023-04-29T03:30:37;99069.44;;;11.59;98.90
69855;BME280;57146;48.140;16.304;2023-04-29T03:33:04;99072.06;;;11.59;99.13
69855;BME280;57146;48.140;16.304;2023-04-29T03:35:31;99068.22;;;11.56;98.95
69855;BME280;57146;48.140;16.304;2023-04-29T03:38:16;99065.25;;;11.58;99.47
69855;BME280;57146;48.140;16.304;2023-04-29T03:40:44;99066.50;;;11.60;99.00
69855;BME280;57146;48.140;16.304;2023-04-29T03:43:11;99070.06;;;11.56;99.06
69855;BME280;57146;48.140;16.304;2023-04-29T03:45:38;99069.00;;;11.57;99.28
69855;BME280;57146;48.140;16.304;2023-04-29T03:48:06;99077.50;;;11.62;99.06
69855;BME280;57146;48.140;16.304;2023-04-29T03:50:34;99075.03;;;11.57;99.23
69855;BME280;57146;48.140;16.304;2023-04-29T03:53:02;99074.25;;;11.57;98.84
69855;BME280;57146;48.140;16.304;2023-04-29T03:55:29;99071.75;;;11.51;99.49
69855;BME280;57146;48.140;16.304;2023-04-29T03:57:56;99073.78;;;11.55;99.94
69855;BME280;57146;48.140;16.304;2023-04-29T04:00:23;99079.38;;;11.53;99.97
69855;BME280;57146;48.140;16.304;2023-04-29T04:02:53;99079.38;;;11.53;100.00
69855;BME280;57146;48.140;16.304;2023-04-29T04:05:20;99076.75;;;11.53;100.00
69855;BME280;57146;48.140;16.304;2023-04-29T04:07:52;99084.16;;;11.51;100.00
69855;BME280;57146;48.140;16.304;2023-04-29T04:10:31;99082.00;;;11.53;100.00
69855;BME280;57146;48.140;16.304;2023-04-29T04:13:01;99080.00;;;11.50;100.00
69855;BME280;57146;48.140;16.304;2023-04-29T04:15:28;99077.66;;;11.48;100.00
69855;BME280;57146;48.140;16.304;2023-04-29T04:17:56;99075.50;;;11.50;100.00
69855;BME280;57146;48.140;16.304;2023-04-29T04:20:23;99078.59;;;11.53;100.00
69855;BME280;57146;48.140;16.304;2023-04-29T04:22:50;99081.25;;;11.53;100.00
69855;BME280;57146;48.140;16.304;2023-04-29T04:25:28;99078.91;;;11.51;100.00
69855;BME280;57146;48.140;16.304;2023-04-29T04:28:04;99076.25;;;11.51;100.00
69855;BME280;57146;48.140;16.304;2023-04-29T04:30:51;99074.41;;;11.51;100.00
69855;BME280;57146;48.140;16.304;2023-04-29T04:33:18;99074.09;;;11.53;100.00
69855;BME280;57146;48.140;16.304;2023-04-29T04:35:45;99081.41;;;11.56;100.00
69855;BME280;57146;48.140;16.304;2023-04-29T04:38:12;99085.56;;;11.57;100.00
69855;BME280;57146;48.140;16.304;2023-04-29T04:40:42;99084.19;;;11.60;100.00
69855;BME280;57146;48.140;16.304;2023-04-29T04:43:26;99081.84;;;11.58;100.00
69855;BME280;57146;48.140;16.304;2023-04-29T04:45:53;99091.00;;;11.61;100.00
69855;BME280;57146;48.140;16.304;2023-04-29T04:48:20;99081.41;;;11.56;100.00
69855;BME280;57146;48.140;16.304;2023-04-29T04:50:49;99082.16;;;11.57;100.00
69855;BME280;57146;48.140;16.304;2023-04-29T04:53:16;99089.94;;;11.53;100.00
69855;BME280;57146;48.140;16.304;2023-04-29T04:55:52;99076.75;;;11.53;100.00
69855;BME280;57146;48.140;16.304;2023-04-29T04:58:19;99081.25;;;11.53;100.00
69855;BME280;57146;48.140;16.304;2023-04-29T05:00:47;99080.91;;;11.54;100.00
69855;BME280;57146;48.140;16.304;2023-04-29T05:03:14;99081.25;;;11.53;100.00
69855;BME280;57146;48.140;16.304;2023-04-29T05:05:41;99087.91;;;11.50;100.00
69855;BME280;57146;48.140;16.304;2023-04-29T05:08:09;99084.16;;;11.51;100.00
69855;BME280;57146;48.140;16.304;2023-04-29T05:10:40;99084.16;;;11.51;100.00
69855;BME280;57146;48.140;16.304;2023-04-29T05:13:09;99093.94;;;11.50;100.00
69855;BME280;57146;48.140;16.304;2023-04-29T05:15:36;99095.97;;;11.54;100.00
69855;BME280;57146;48.140;16.304;2023-04-29T05:18:05;99091.63;;;11.58;100.00
69855;BME280;57146;48.140;16.304;2023-04-29T05:20:32;99091.63;;;11.58;100.00
69855;BME280;57146;48.140;16.304;2023-04-29T05:23:00;99099.22;;;11.59;100.00
69855;BME280;57146;48.140;16.304;2023-04-29T05:25:31;99107.91;;;11.60;100.00
69855;BME280;57146;48.140;16.304;2023-04-29T05:27:59;99101.22;;;11.62;100.00
69855;BME280;57146;48.140;16.304;2023-04-29T05:30:29;99098.31;;;11.64;100.00
69855;BME280;57146;48.140;16.304;2023-04-29T05:32:57;99098.91;;;11.69;100.00
69855;BME280;57146;48.140;16.304;2023-04-29T05:35:24;99104.34;;;11.73;100.00
69855;BME280;57146;48.140;16.304;2023-04-29T05:37:51;99098.00;;;11.74;100.00
69855;BME280;57146;48.140;16.304;2023-04-29T05:40:25;99100.16;;;11.72;100.00
69855;BME280;57146;48.140;16.304;2023-04-29T05:43:06;99109.31;;;11.74;100.00
69855;BME280;57146;48.140;16.304;2023-04-29T05:45:33;99106.53;;;11.71;100.00
69855;BME280;57146;48.140;16.304;2023-04-29T05:48:00;99111.03;;;11.70;100.00
69855;BME280;57146;48.140;16.304;2023-04-29T05:50:27;99118.13;;;11.70;100.00
69855;BME280;57146;48.140;16.304;2023-04-29T05:52:54;99111.03;;;11.70;100.00
69855;BME280;57146;48.140;16.304;2023-04-29T05:55:23;99110.53;;;11.68;100.00
69855;BME280;57146;48.140;16.304;2023-04-29T05:57:50;99117.53;;;11.64;100.00
69855;BME280;57146;48.140;16.304;2023-04-29T06:00:17;99121.25;;;11.63;100.00
69855;BME280;57146;48.140;16.304;2023-04-29T06:02:43;99118.63;;;11.63;100.00
69855;BME280;57146;48.140;16.304;2023-04-29T06:05:26;99124.06;;;11.67;100.00
69855;BME280;57146;48.140;16.304;2023-04-29T06:08:16;99124.22;;;11.70;100.00
69855;BME280;57146;48.140;16.304;2023-04-29T06:10:48;99124.66;;;11.72;100.00
69855;BME280;57146;48.140;16.304;2023-04-29T06:13:15;99118.59;;;11.72;100.00
69855;BME280;57146;48.140;16.304;2023-04-29T06:15:43;99127.44;;;11.76;100.00
69855;BME280;57146;48.140;16.304;2023-04-29T06:18:12;99114.59;;;11.74;100.00
69855;BME280;57146;48.140;16.304;2023-04-29T06:20:39;99117.50;;;11.73;100.00
69855;BME280;57146;48.140;16.304;2023-04-29T06:23:06;99120.00;;;11.78;100.00
69855;BME280;57146;48.140;16.304;2023-04-29T06:25:33;99132.44;;;11.78;100.00
69855;BME280;57146;48.140;16.304;2023-04-29T06:28:03;99120.94;;;11.82;100.00
69855;BME280;57146;48.140;16.304;2023-04-29T06:30:30;99123.75;;;11.86;100.00
69855;BME280;57146;48.140;16.304;2023-04-29T06:32:57;99127.78;;;11.92;100.00
69855;BME280;57146;48.140;16.304;2023-04-29T06:35:24;99127.47;;;11.93;100.00
69855;BME280;57146;48.140;16.304;2023-04-29T06:38:23;99125.78;;;11.89;100.00
69855;BME280;57146;48.140;16.304;2023-04-29T06:41:13;99124.84;;;11.93;100.00
69855;BME280;57146;48.140;16.304;2023-04-29T06:43:57;99134.91;;;12.00;100.00
69855;BME280;57146;48.140;16.304;2023-04-29T06:46:45;99129.03;;;12.03;100.00
69855;BME280;57146;48.140;16.304;2023-04-29T06:49:30;99128.56;;;12.10;100.00
69855;BME280;57146;48.140;16.304;2023-04-29T06:51:58;99124.50;;;12.12;100.00
69855;BME280;57146;48.140;16.304;2023-04-29T06:54:25;99124.66;;;12.16;100.00
69855;BME280;57146;48.140;16.304;2023-04-29T06:56:52;99128.22;;;12.20;100.00
69855;BME280;57146;48.140;16.304;2023-04-29T06:59:22;99126.50;;;12.33;100.00
69855;BME280;57146;48.140;16.304;2023-04-29T07:01:50;99126.00;;;12.39;100.00
69855;BME280;57146;48.140;16.304;2023-04-29T07:04:18;99114.34;;;12.49;100.00
69855;BME280;57146;48.140;16.304;2023-04-29T07:06:46;99129.03;;;12.59;100.00
69855;BME280;57146;48.140;16.304;2023-04-29T07:09:13;99131.19;;;12.65;100.00
69855;BME280;57146;48.140;16.304;2023-04-29T07:11:40;99122.31;;;12.79;100.00
69855;BME280;57146;48.140;16.304;2023-04-29T07:14:07;99119.44;;;12.92;100.00
69855;BME280;57146;48.140;16.304;2023-04-29T07:16:34;99118.59;;;13.09;100.00
69855;BME280;57146;48.140;16.304;2023-04-29T07:19:01;99105.94;;;13.24;100.00
69855;BME280;57146;48.140;16.304;2023-04-29T07:21:28;99116.59;;;13.36;100.00
69855;BME280;57146;48.140;16.304;2023-04-29T07:23:55;99113.44;;;13.43;100.00
69855;BME280;57146;48.140;16.304;2023-04-29T07:26:22;99117.09;;;13.50;100.00
69855;BME280;57146;48.140;16.304;2023-04-29T07:28:49;99119.03;;;13.62;100.00
69855;BME280;57146;48.140;16.304;2023-04-29T07:31:16;99115.09;;;13.68;100.00
69855;BME280;57146;48.140;16.304;2023-04-29T07:33:43;99127.34;;;13.73;100.00
69855;BME280;57146;48.140;16.304;2023-04-29T07:36:10;99127.81;;;13.75;99.98
69855;BME280;57146;48.140;16.304;2023-04-29T07:38:37;99124.84;;;13.76;98.92
69855;BME280;57146;48.140;16.304;2023-04-29T07:41:04;99125.88;;;13.84;99.73
69855;BME280;57146;48.140;16.304;2023-04-29T07:43:31;99123.38;;;13.87;99.08
69855;BME280;57146;48.140;16.304;2023-04-29T07:45:58;99127.47;;;13.97;99.36
69855;BME280;57146;48.140;16.304;2023-04-29T07:48:25;99127.28;;;14.02;98.13
69855;BME280;57146;48.140;16.304;2023-04-29T07:50:52;99129.41;;;14.09;98.37
69855;BME280;57146;48.140;16.304;2023-04-29T07:53:19;99120.59;;;14.17;97.39
69855;BME280;57146;48.140;16.304;2023-04-29T07:55:46;99125.38;;;14.24;96.88
69855;BME280;57146;48.140;16.304;2023-04-29T07:58:13;99122.94;;;14.31;96.85
69855;BME280;57146;48.140;16.304;2023-04-29T08:00:40;99121.63;;;14.37;96.58
69855;BME280;57146;48.140;16.304;2023-04-29T08:03:07;99118.00;;;14.42;96.37
69855;BME280;57146;48.140;16.304;2023-04-29T08:05:34;99130.41;;;14.50;94.48
69855;BME280;57146;48.140;16.304;2023-04-29T08:08:02;99133.16;;;14.53;93.36
69855;BME280;57146;48.140;16.304;2023-04-29T08:10:29;99132.94;;;14.58;94.38
69855;BME280;57146;48.140;16.304;2023-04-29T08:12:56;99130.09;;;14.64;94.02
69855;BME280;57146;48.140;16.304;2023-04-29T08:15:23;99132.63;;;14.72;94.65
69855;BME280;57146;48.140;16.304;2023-04-29T08:17:51;99145.13;;;14.84;94.96
69855;BME280;57146;48.140;16.304;2023-04-29T08:20:18;99131.34;;;14.91;94.40
69855;BME280;57146;48.140;16.304;2023-04-29T08:22:45;99134.63;;;15.00;93.35
69855;BME280;57146;48.140;16.304;2023-04-29T08:25:11;99124.91;;;15.04;92.82
69855;BME280;57146;48.140;16.304;2023-04-29T08:27:38;99127.34;;;15.09;92.11
69855;BME280;57146;48.140;16.304;2023-04-29T08:30:06;99127.25;;;15.05;90.28
69855;BME280;57146;48.140;16.304;2023-04-29T08:32:33;99124.03;;;15.00;89.44
69855;BME280;57146;48.140;16.304;2023-04-29T08:35:00;99128.56;;;14.99;91.47
69855;BME280;57146;48.140;16.304;2023-04-29T08:37:26;99130.56;;;15.02;92.05
69855;BME280;57146;48.140;16.304;2023-04-29T08:39:53;99127.25;;;15.05;92.32
69855;BME280;57146;48.140;16.304;2023-04-29T08:42:32;99129.25;;;15.08;91.72
69855;BME280;57146;48.140;16.304;2023-04-29T08:45:00;99131.00;;;15.04;89.17
69855;BME280;57146;48.140;16.304;2023-04-29T08:47:32;99131.00;;;15.04;90.60
69855;BME280;57146;48.140;16.304;2023-04-29T08:50:03;99130.75;;;14.97;90.62
69855;BME280;57146;48.140;16.304;2023-04-29T08:52:32;99144.59;;;14.91;92.63
69855;BME280;57146;48.140;16.304;2023-04-29T08:54:59;99149.56;;;14.80;95.24
69855;BME280;57146;48.140;16.304;2023-04-29T08:57:27;99151.19;;;14.72;95.06
69855;BME280;57146;48.140;16.304;2023-04-29T08:59:55;99164.84;;;14.62;94.91
69855;BME280;57146;48.140;16.304;2023-04-29T09:02:25;99155.91;;;14.54;95.66
69855;BME280;57146;48.140;16.304;2023-04-29T09:05:02;99162.31;;;14.53;96.44
69855;BME280;57146;48.140;16.304;2023-04-29T09:07:34;99160.13;;;14.55;96.60
69855;BME280;57146;48.140;16.304;2023-04-29T09:10:03;99159.31;;;14.55;96.94
69855;BME280;57146;48.140;16.304;2023-04-29T09:12:30;99147.75;;;14.59;97.32
69855;BME280;57146;48.140;16.304;2023-04-29T09:14:57;99156.78;;;14.58;97.27
69855;BME280;57146;48.140;16.304;2023-04-29T09:17:44;99169.34;;;14.49;96.96
69855;BME280;57146;48.140;16.304;2023-04-29T09:25:19;99172.28;;;14.35;96.14
69855;BME280;57146;48.140;16.304;2023-04-29T09:27:46;99173.19;;;14.19;95.43
69855;BME280;57146;48.140;16.304;2023-04-29T09:30:13;99177.59;;;14.14;96.31
69855;BME280;57146;48.140;16.304;2023-04-29T09:32:45;99171.28;;;14.07;93.96
69855;BME280;57146;48.140;16.304;2023-04-29T09:35:30;99172.16;;;13.99;93.42
69855;BME280;57146;48.140;16.304;2023-04-29T09:38:09;99166.84;;;13.99;94.47
69855;BME280;57146;48.140;16.304;2023-04-29T09:40:36;99169.03;;;13.97;94.36
69855;BME280;57146;48.140;16.304;2023-04-29T09:43:22;99166.84;;;13.99;95.05
69855;BME280;57146;48.140;16.304;2023-04-29T09:45:49;99162.50;;;13.94;92.50
69855;BME280;57146;48.140;16.304;2023-04-29T09:48:16;99164.06;;;13.95;92.18
69855;BME280;57146;48.140;16.304;2023-04-29T09:50:58;99166.97;;;14.02;93.17
69855;BME280;57146;48.140;16.304;2023-04-29T09:53:29;99162.44;;;14.03;89.38
69855;BME280;57146;48.140;16.304;2023-04-29T09:58:29;99162.25;;;14.08;90.97
69855;BME280;57146;48.140;16.304;2023-04-29T10:01:01;99153.34;;;14.12;91.60
69855;BME280;57146;48.140;16.304;2023-04-29T10:03:34;99154.66;;;14.19;91.83
69855;BME280;57146;48.140;16.304;2023-04-29T10:06:05;99149.63;;;14.26;92.31
69855;BME280;57146;48.140;16.304;2023-04-29T10:08:33;99154.25;;;14.29;90.70
69855;BME280;57146;48.140;16.304;2023-04-29T10:11:02;99154.97;;;14.38;91.16
69855;BME280;57146;48.140;16.304;2023-04-29T10:13:30;99152.56;;;14.45;90.02
69855;BME280;57146;48.140;16.304;2023-04-29T10:18:36;99142.22;;;14.65;93.24
69855;BME280;57146;48.140;16.304;2023-04-29T10:21:06;99148.66;;;14.76;89.74
69855;BME280;57146;48.140;16.304;2023-04-29T10:23:35;99129.56;;;14.82;86.12
69855;BME280;57146;48.140;16.304;2023-04-29T10:26:02;99128.34;;;14.92;87.27
69855;BME280;57146;48.140;16.304;2023-04-29T10:28:30;99126.03;;;15.03;86.47
69855;BME280;57146;48.140;16.304;2023-04-29T10:31:01;99127.47;;;15.13;87.41
69855;BME280;57146;48.140;16.304;2023-04-29T10:33:31;99115.28;;;15.24;87.06
69855;BME280;57146;48.140;16.304;2023-04-29T10:35:58;99111.41;;;15.33;85.44
69855;BME280;57146;48.140;16.304;2023-04-29T10:38:40;99109.97;;;15.36;81.04
69855;BME280;57146;48.140;16.304;2023-04-29T10:41:20;99112.28;;;15.38;79.73
69855;BME280;57146;48.140;16.304;2023-04-29T10:43:48;99097.66;;;15.44;79.83
69855;BME280;57146;48.140;16.304;2023-04-29T10:48:43;99094.31;;;15.71;79.10
69855;BME280;57146;48.140;16.304;2023-04-29T10:51:10;99092.88;;;15.74;77.68
69855;BME280;57146;48.140;16.304;2023-04-29T10:54:16;99083.97;;;15.82;77.85
69855;BME280;57146;48.140;16.304;2023-04-29T10:56:48;99087.28;;;15.91;76.21
69855;BME280;57146;48.140;16.304;2023-04-29T11:01:54;99075.03;;;16.02;75.09
69855;BME280;57146;48.140;16.304;2023-04-29T11:04:21;99075.56;;;16.08;74.13
69855;BME280;57146;48.140;16.304;2023-04-29T11:06:53;99074.19;;;16.14;73.89
69855;BME280;57146;48.140;16.304;2023-04-29T11:09:24;99067.44;;;16.17;75.41
69855;BME280;57146;48.140;16.304;2023-04-29T11:17:00;99055.72;;;16.34;73.70
69855;BME280;57146;48.140;16.304;2023-04-29T11:19:34;99053.81;;;16.34;74.65
69855;BME280;57146;48.140;16.304;2023-04-29T11:22:25;99057.25;;;16.35;73.40
69855;BME280;57146;48.140;16.304;2023-04-29T11:27:26;99054.69;;;16.38;74.83
69855;BME280;57146;48.140;16.304;2023-04-29T11:29:54;99062.28;;;16.40;72.13
69855;BME280;57146;48.140;16.304;2023-04-29T11:32:21;99056.97;;;16.40;71.64
69855;BME280;57146;48.140;16.304;2023-04-29T11:34:48;99056.56;;;16.38;71.36
69855;BME280;57146;48.140;16.304;2023-04-29T11:37:24;99049.81;;;16.40;71.89
69855;BME280;57146;48.140;16.304;2023-04-29T11:39:58;99052.63;;;16.47;70.11
69855;BME280;57146;48.140;16.304;2023-04-29T11:42:26;99051.59;;;16.52;72.54
69855;BME280;57146;48.140;16.304;2023-04-29T11:44:54;99052.69;;;16.67;74.59
69855;BME280;57146;48.140;16.304;2023-04-29T11:47:27;99053.22;;;16.72;77.78
69855;BME280;57146;48.140;16.304;2023-04-29T11:50:06;99051.06;;;16.78;79.08
69855;BME280;57146;48.140;16.304;2023-04-29T11:52:39;99040.25;;;16.87;79.78
69855;BME280;57146;48.140;16.304;2023-04-29T11:55:10;99037.25;;;16.88;78.83
69855;BME280;57146;48.140;16.304;2023-04-29T11:57:37;99040.66;;;16.89;78.95
69855;BME280;57146;48.140;16.304;2023-04-29T12:00:09;99041.72;;;16.84;76.73
69855;BME280;57146;48.140;16.304;2023-04-29T12:02:36;99043.94;;;16.82;77.92
69855;BME280;57146;48.140;16.304;2023-04-29T12:05:07;99040.88;;;16.80;77.22
69855;BME280;57146;48.140;16.304;2023-04-29T12:07:34;99052.97;;;16.78;77.69
69855;BME280;57146;48.140;16.304;2023-04-29T12:10:02;99049.00;;;16.71;76.89
69855;BME280;57146;48.140;16.304;2023-04-29T12:12:29;99060.38;;;16.72;77.98
69855;BME280;57146;48.140;16.304;2023-04-29T12:14:56;99059.53;;;16.68;78.29
69855;BME280;57146;48.140;16.304;2023-04-29T12:17:23;99054.22;;;16.68;78.45
69855;BME280;57146;48.140;16.304;2023-04-29T12:19:50;99059.38;;;16.61;79.25
69855;BME280;57146;48.140;16.304;2023-04-29T12:22:18;99071.81;;;16.57;78.86
69855;BME280;57146;48.140;16.304;2023-04-29T12:24:45;99072.09;;;16.51;79.46
69855;BME280;57146;48.140;16.304;2023-04-29T12:27:15;99074.63;;;16.32;78.83
69855;BME280;57146;48.140;16.304;2023-04-29T12:29:45;99076.13;;;16.30;79.02
69855;BME280;57146;48.140;16.304;2023-04-29T12:32:17;99076.34;;;16.24;79.56
69855;BME280;57146;48.140;16.304;2023-04-29T12:34:45;99071.03;;;16.24;79.82
69855;BME280;57146;48.140;16.304;2023-04-29T12:37:12;99072.75;;;16.17;79.54
69855;BME280;57146;48.140;16.304;2023-04-29T12:39:40;99070.34;;;16.12;79.36
69855;BME280;57146;48.140;16.304;2023-04-29T12:42:14;99072.66;;;16.13;79.28
69855;BME280;57146;48.140;16.304;2023-04-29T12:44:46;99076.75;;;16.11;80.12
69855;BME280;57146;48.140;16.304;2023-04-29T12:47:14;99080.09;;;16.08;80.77
69855;BME280;57146;48.140;16.304;2023-04-29T12:49:43;99082.31;;;16.06;80.79
69855;BME280;57146;48.140;16.304;2023-04-29T12:52:11;99075.47;;;16.04;81.27
69855;BME280;57146;48.140;16.304;2023-04-29T12:54:39;99081.56;;;16.05;81.58
69855;BME280;57146;48.140;16.304;2023-04-29T12:57:06;99095.06;;;16.00;83.24
69855;BME280;57146;48.140;16.304;2023-04-29T12:59:33;99100.19;;;15.93;84.64
69855;BME280;57146;48.140;16.304;2023-04-29T13:02:00;99090.94;;;15.87;86.51
69855;BME280;57146;48.140;16.304;2023-04-29T13:04:27;99090.84;;;15.83;86.94
69855;BME280;57146;48.140;16.304;2023-04-29T13:06:54;99089.44;;;15.73;87.56
69855;BME280;57146;48.140;16.304;2023-04-29T13:09:21;99089.00;;;15.71;86.64
69855;BME280;57146;48.140;16.304;2023-04-29T13:11:48;99086.25;;;15.68;86.81
69855;BME280;57146;48.140;16.304;2023-04-29T13:14:15;99088.47;;;15.66;87.34
69855;BME280;57146;48.140;16.304;2023-04-29T13:16:41;99071.03;;;15.52;87.28
69855;BME280;57146;48.140;16.304;2023-04-29T13:19:08;99075.69;;;15.43;85.47
69855;BME280;57146;48.140;16.304;2023-04-29T13:21:55;99076.66;;;15.51;85.77
69855;BME280;57146;48.140;16.304;2023-04-29T13:24:22;99086.19;;;15.52;86.59
69855;BME280;57146;48.140;16.304;2023-04-29T13:26:49;99075.97;;;15.54;87.14
69855;BME280;57146;48.140;16.304;2023-04-29T13:29:18;99068.03;;;15.54;88.40
69855;BME280;57146;48.140;16.304;2023-04-29T13:31:45;99065.38;;;15.54;86.87
69855;BME280;57146;48.140;16.304;2023-04-29T13:34:12;99064.59;;;15.53;86.41